createdAt,value
2016-02-27T00:00:40.062Z,940.44
2016-02-27T00:01:40.016Z,940.45
2016-02-27T00:02:39.941Z,940.44
2016-02-27T00:03:39.898Z,940.39
2016-02-27T00:04:39.838Z,940.41
2016-02-27T00:05:39.777Z,940.33
2016-02-27T00:06:39.718Z,940.34
2016-02-27T00:07:39.658Z,940.38
2016-02-27T00:08:39.599Z,940.35
2016-02-27T00:09:39.538Z,940.31
2016-02-27T00:10:39.479Z,940.3
2016-02-27T00:11:39.450Z,940.31
2016-02-27T00:12:39.406Z,940.33
2016-02-27T00:13:39.315Z,940.31
2016-02-27T00:14:39.256Z,940.33
2016-02-27T00:15:39.242Z,940.31
2016-02-27T00:16:39.182Z,940.31
2016-02-27T00:17:39.357Z,940.31
2016-02-27T00:18:39.001Z,940.26
2016-02-27T00:19:39.003Z,940.29
2016-02-27T00:20:38.928Z,940.29
2016-02-27T00:21:38.837Z,940.25
2016-02-27T00:22:38.792Z,940.25
2016-02-27T00:23:38.733Z,940.28
2016-02-27T00:24:38.641Z,940.25
2016-02-27T00:25:38.613Z,940.22
2016-02-27T00:26:38.553Z,940.2
2016-02-27T00:27:38.493Z,940.2
2016-02-27T00:28:38.433Z,940.18
2016-02-27T00:29:38.389Z,940.15
2016-02-27T00:30:38.329Z,940.16
2016-02-27T00:31:38.239Z,940.17
2016-02-27T00:32:38.225Z,940.14
2016-02-27T00:33:38.135Z,940.15
2016-02-27T00:34:38.044Z,940.12
2016-02-27T00:35:38.031Z,940.09
2016-02-27T00:36:37.971Z,940.1
2016-02-27T00:37:37.911Z,940.11
2016-02-27T00:38:37.835Z,940.12
2016-02-27T00:39:37.776Z,940.1
2016-02-27T00:40:38.107Z,940.15
2016-02-27T00:41:37.609Z,940.15
2016-02-27T00:42:37.581Z,940.16
2016-02-27T00:43:37.568Z,940.14
2016-02-27T00:44:37.507Z,940.14
2016-02-27T00:45:37.386Z,940.16
2016-02-27T00:46:37.357Z,940.13
2016-02-27T00:47:37.312Z,940.11
2016-02-27T00:48:37.207Z,940.12
2016-02-27T00:49:37.146Z,940.11
2016-02-27T00:50:37.102Z,940.08
2016-02-27T00:51:37.058Z,940.05
2016-02-27T00:52:36.983Z,940.09
2016-02-27T00:53:37.001Z,940.06
2016-02-27T00:54:36.894Z,940.09
2016-02-27T00:55:37.053Z,940.12
2016-02-27T00:56:36.759Z,940.13
2016-02-27T00:57:36.683Z,940.11
2016-02-27T00:58:36.655Z,940.11
2016-02-27T00:59:36.595Z,940.1
2016-02-27T01:00:36.519Z,940.1
2016-02-27T01:01:36.507Z,940.05
2016-02-27T01:02:36.353Z,940.06
2016-02-27T01:03:36.325Z,940.01
2016-02-27T01:04:36.358Z,940.02
2016-02-27T01:05:36.205Z,940.03
2016-02-27T01:06:36.208Z,940.04
2016-02-27T01:07:36.086Z,940.02
2016-02-27T01:08:36.041Z,940.02
2016-02-27T01:09:35.950Z,940
2016-02-27T01:10:35.907Z,939.95
2016-02-27T01:11:35.828Z,939.94
2016-02-27T01:12:35.784Z,939.92
2016-02-27T01:13:35.787Z,939.96
2016-02-27T01:14:35.632Z,939.96
2016-02-27T01:15:35.604Z,939.91
2016-02-27T01:16:35.545Z,939.92
2016-02-27T01:17:35.485Z,939.89
2016-02-27T01:18:35.425Z,939.88
2016-02-27T01:19:35.427Z,939.9
2016-02-27T01:20:35.290Z,939.91
2016-02-27T01:21:35.199Z,939.88
2016-02-27T01:22:35.170Z,939.9
2016-02-27T01:23:35.095Z,939.95
2016-02-27T01:24:35.067Z,939.93
2016-02-27T01:25:34.990Z,939.91
2016-02-27T01:26:34.915Z,939.87
2016-02-27T01:27:34.839Z,939.89
2016-02-27T01:28:34.811Z,939.86
2016-02-27T01:29:34.750Z,939.79
2016-02-27T01:30:34.675Z,939.8
2016-02-27T01:31:34.586Z,939.77
2016-02-27T01:32:34.541Z,939.74
2016-02-27T01:33:34.480Z,939.7
2016-02-27T01:34:34.422Z,939.73
2016-02-27T01:35:34.361Z,939.74
2016-02-27T01:36:34.302Z,939.74
2016-02-27T01:37:34.226Z,939.69
2016-02-27T01:38:34.182Z,939.67
2016-02-27T01:39:34.122Z,939.72
2016-02-27T01:40:34.062Z,939.69
2016-02-27T01:41:34.002Z,939.66
2016-02-27T01:42:33.943Z,939.66
2016-02-27T01:43:33.882Z,939.66
2016-02-27T01:44:33.807Z,939.62
2016-02-27T01:45:33.763Z,939.62
2016-02-27T01:46:33.704Z,939.6
2016-02-27T01:47:33.643Z,939.56
2016-02-27T01:48:33.599Z,939.6
2016-02-27T01:49:33.524Z,939.55
2016-02-27T01:50:33.464Z,939.53
2016-02-27T01:51:33.389Z,939.51
2016-02-27T01:52:33.344Z,939.46
2016-02-27T01:53:33.284Z,939.43
2016-02-27T01:54:33.240Z,939.46
2016-02-27T01:55:33.149Z,939.43
2016-02-27T01:56:33.106Z,939.43
2016-02-27T01:57:33.030Z,939.43
2016-02-27T01:58:32.986Z,939.39
2016-02-27T01:59:32.911Z,939.43
2016-02-27T02:00:32.834Z,939.37
2016-02-27T02:01:32.791Z,939.35
2016-02-27T02:02:32.808Z,939.36
2016-02-27T02:03:32.655Z,939.35
2016-02-27T02:04:32.611Z,939.3
2016-02-27T02:05:32.552Z,939.27
2016-02-27T02:06:32.476Z,939.25
2016-02-27T02:07:32.416Z,939.2
2016-02-27T02:08:32.356Z,939.18
2016-02-27T02:09:32.312Z,939.18
2016-02-27T02:10:32.236Z,939.17
2016-02-27T02:11:32.193Z,939.16
2016-02-27T02:12:32.116Z,939.19
2016-02-27T02:13:32.057Z,939.18
2016-02-27T02:14:32.012Z,939.21
2016-02-27T02:15:31.938Z,939.2
2016-02-27T02:16:31.894Z,939.19
2016-02-27T02:17:31.834Z,939.2
2016-02-27T02:18:31.774Z,939.18
2016-02-27T02:19:31.714Z,939.16
2016-02-27T02:20:31.654Z,939.17
2016-02-27T02:21:31.578Z,939.16
2016-02-27T02:22:31.534Z,939.19
2016-02-27T02:23:31.476Z,939.18
2016-02-27T02:24:31.415Z,939.23
2016-02-27T02:25:31.340Z,939.2
2016-02-27T02:26:31.373Z,939.19
2016-02-27T02:27:31.220Z,939.12
2016-02-27T02:28:31.176Z,939.13
2016-02-27T02:29:31.116Z,939.13
2016-02-27T02:30:31.040Z,939.09
2016-02-27T02:31:31.028Z,939.12
2016-02-27T02:32:30.936Z,939.15
2016-02-27T02:33:30.861Z,939.07
2016-02-27T02:34:30.801Z,939.09
2016-02-27T02:35:30.742Z,939.09
2016-02-27T02:36:30.713Z,939.14
2016-02-27T02:37:30.653Z,939.13
2016-02-27T02:38:30.561Z,939.15
2016-02-27T02:39:30.861Z,939.19
2016-02-27T02:40:30.457Z,939.18
2016-02-27T02:41:30.382Z,939.19
2016-02-27T02:42:30.323Z,939.23
2016-02-27T02:43:30.279Z,939.27
2016-02-27T02:44:30.203Z,939.37
2016-02-27T02:45:30.159Z,939.37
2016-02-27T02:46:30.083Z,939.36
2016-02-27T02:47:30.007Z,939.35
2016-02-27T02:48:29.948Z,939.34
2016-02-27T02:49:29.920Z,939.29
2016-02-27T02:50:29.844Z,939.29
2016-02-27T02:51:29.801Z,939.28
2016-02-27T02:52:29.709Z,939.24
2016-02-27T02:53:29.727Z,939.23
2016-02-27T02:54:29.652Z,939.23
2016-02-27T02:55:29.545Z,939.22
2016-02-27T02:56:29.470Z,939.28
2016-02-27T02:57:29.425Z,939.22
2016-02-27T02:58:29.365Z,939.24
2016-02-27T02:59:29.290Z,939.17
2016-02-27T03:00:29.230Z,939.14
2016-02-27T03:01:29.187Z,939.1
2016-02-27T03:02:29.205Z,939.1
2016-02-27T03:03:29.067Z,939.05
2016-02-27T03:04:28.991Z,939.06
2016-02-27T03:05:28.963Z,939.11
2016-02-27T03:06:28.887Z,939.08
2016-02-27T03:07:28.811Z,939.06
2016-02-27T03:08:28.767Z,939.08
2016-02-27T03:09:28.692Z,939.03
2016-02-27T03:10:28.648Z,939.03
2016-02-27T03:11:28.572Z,938.98
2016-02-27T03:12:28.528Z,938.96
2016-02-27T03:13:28.469Z,938.96
2016-02-27T03:14:28.408Z,938.96
2016-02-27T03:15:28.333Z,938.99
2016-02-27T03:16:28.273Z,938.94
2016-02-27T03:17:28.230Z,938.97
2016-02-27T03:18:28.169Z,938.98
2016-02-27T03:19:28.094Z,938.95
2016-02-27T03:20:28.065Z,938.93
2016-02-27T03:21:27.990Z,938.93
2016-02-27T03:22:27.899Z,938.91
2016-02-27T03:23:27.854Z,938.88
2016-02-27T03:24:27.779Z,938.84
2016-02-27T03:25:27.735Z,938.87
2016-02-27T03:26:27.676Z,938.84
2016-02-27T03:27:27.615Z,938.89
2016-02-27T03:28:27.571Z,938.91
2016-02-27T03:29:27.824Z,938.89
2016-02-27T03:30:27.467Z,938.9
2016-02-27T03:31:27.361Z,938.9
2016-02-27T03:32:27.317Z,938.88
2016-02-27T03:33:27.303Z,938.89
2016-02-27T03:34:27.181Z,938.89
2016-02-27T03:35:27.168Z,938.86
2016-02-27T03:36:27.062Z,938.88
2016-02-27T03:37:27.017Z,938.87
2016-02-27T03:38:26.927Z,938.9
2016-02-27T03:39:26.883Z,938.88
2016-02-27T03:40:26.853Z,938.89
2016-02-27T03:41:26.763Z,938.93
2016-02-27T03:42:26.718Z,938.92
2016-02-27T03:43:26.643Z,938.94
2016-02-27T03:44:26.599Z,938.96
2016-02-27T03:45:26.508Z,938.99
2016-02-27T03:46:26.464Z,938.98
2016-02-27T03:47:26.388Z,938.98
2016-02-27T03:48:26.329Z,939.02
2016-02-27T03:49:26.285Z,938.99
2016-02-27T03:50:26.209Z,938.94
2016-02-27T03:51:26.164Z,938.97
2016-02-27T03:52:26.090Z,938.92
2016-02-27T03:53:26.045Z,938.87
2016-02-27T03:54:25.985Z,938.92
2016-02-27T03:55:25.926Z,938.89
2016-02-27T03:56:25.865Z,938.87
2016-02-27T03:57:25.806Z,938.85
2016-02-27T03:58:25.745Z,938.84
2016-02-27T03:59:25.654Z,938.89
2016-02-27T04:00:25.595Z,938.86
2016-02-27T04:01:25.582Z,938.9
2016-02-27T04:02:25.476Z,938.9
2016-02-27T04:03:25.415Z,938.88
2016-02-27T04:04:25.403Z,938.89
2016-02-27T04:05:25.311Z,938.89
2016-02-27T04:06:25.236Z,938.88
2016-02-27T04:07:25.191Z,938.86
2016-02-27T04:08:25.117Z,938.84
2016-02-27T04:09:25.057Z,938.84
2016-02-27T04:10:25.013Z,938.84
2016-02-27T04:11:24.937Z,938.84
2016-02-27T04:12:24.894Z,938.77
2016-02-27T04:13:24.817Z,938.76
2016-02-27T04:14:24.758Z,938.74
2016-02-27T04:15:24.697Z,938.76
2016-02-27T04:16:24.654Z,938.75
2016-02-27T04:17:24.577Z,938.7
2016-02-27T04:18:24.518Z,938.68
2016-02-27T04:19:24.444Z,938.68
2016-02-27T04:20:24.399Z,938.73
2016-02-27T04:21:24.324Z,938.76
2016-02-27T04:22:24.263Z,938.74
2016-02-27T04:23:24.204Z,938.76
2016-02-27T04:24:24.159Z,938.74
2016-02-27T04:25:24.100Z,938.71
2016-02-27T04:26:24.056Z,938.69
2016-02-27T04:27:23.996Z,938.72
2016-02-27T04:28:23.905Z,938.7
2016-02-27T04:29:23.892Z,938.74
2016-02-27T04:30:23.773Z,938.73
2016-02-27T04:31:23.701Z,938.74
2016-02-27T04:32:23.627Z,938.74
2016-02-27T04:33:23.555Z,938.75
2016-02-27T04:34:23.481Z,938.77
2016-02-27T04:35:23.401Z,938.75
2016-02-27T04:36:23.351Z,938.75
2016-02-27T04:37:23.302Z,938.76
2016-02-27T04:38:23.222Z,938.69
2016-02-27T04:39:23.157Z,938.75
2016-02-27T04:40:23.095Z,938.69
2016-02-27T04:41:23.034Z,938.76
2016-02-27T04:42:22.957Z,938.73
2016-02-27T04:43:22.943Z,938.74
2016-02-27T04:44:22.835Z,938.71
2016-02-27T04:45:22.837Z,938.72
2016-02-27T04:46:22.728Z,938.7
2016-02-27T04:47:22.652Z,938.68
2016-02-27T04:48:22.592Z,938.7
2016-02-27T04:49:22.531Z,938.67
2016-02-27T04:50:22.502Z,938.69
2016-02-27T04:51:22.411Z,938.75
2016-02-27T04:52:22.398Z,938.76
2016-02-27T04:53:22.291Z,938.78
2016-02-27T04:54:22.231Z,938.78
2016-02-27T04:55:22.155Z,938.82
2016-02-27T04:56:22.095Z,938.8
2016-02-27T04:57:22.036Z,938.78
2016-02-27T04:58:21.975Z,938.76
2016-02-27T04:59:21.916Z,938.75
2016-02-27T05:00:21.839Z,938.77
2016-02-27T05:01:21.842Z,938.78
2016-02-27T05:02:21.721Z,938.85
2016-02-27T05:03:21.677Z,938.8
2016-02-27T05:04:21.617Z,938.82
2016-02-27T05:05:21.588Z,938.81
2016-02-27T05:06:21.497Z,938.85
2016-02-27T05:07:21.421Z,938.88
2016-02-27T05:08:21.393Z,938.84
2016-02-27T05:09:21.349Z,938.85
2016-02-27T05:10:21.274Z,938.82
2016-02-27T05:11:21.183Z,938.81
2016-02-27T05:12:21.122Z,938.8
2016-02-27T05:13:21.047Z,938.83
2016-02-27T05:14:20.987Z,938.79
2016-02-27T05:15:20.943Z,938.78
2016-02-27T05:16:20.899Z,938.78
2016-02-27T05:17:20.839Z,938.81
2016-02-27T05:18:20.749Z,938.8
2016-02-27T05:19:20.688Z,938.79
2016-02-27T05:20:20.613Z,938.8
2016-02-27T05:21:20.568Z,938.82
2016-02-27T05:22:20.509Z,938.79
2016-02-27T05:23:20.448Z,938.83
2016-02-27T05:24:20.389Z,938.78
2016-02-27T05:25:20.329Z,938.81
2016-02-27T05:26:20.270Z,938.79
2016-02-27T05:27:20.242Z,938.8
2016-02-27T05:28:20.134Z,938.76
2016-02-27T05:29:20.090Z,938.77
2016-02-27T05:30:20.015Z,938.78
2016-02-27T05:31:19.955Z,938.77
2016-02-27T05:32:19.926Z,938.81
2016-02-27T05:33:19.835Z,938.8
2016-02-27T05:34:19.776Z,938.84
2016-02-27T05:35:19.700Z,938.82
2016-02-27T05:36:19.687Z,938.8
2016-02-27T05:37:19.596Z,938.79
2016-02-27T05:38:19.521Z,938.84
2016-02-27T05:39:19.491Z,938.84
2016-02-27T05:40:19.463Z,938.89
2016-02-27T05:41:19.325Z,938.9
2016-02-27T05:42:19.313Z,938.9
2016-02-27T05:43:19.222Z,938.96
2016-02-27T05:44:19.162Z,938.9
2016-02-27T05:45:19.133Z,938.96
2016-02-27T05:46:19.042Z,938.96
2016-02-27T05:47:18.998Z,938.94
2016-02-27T05:48:19.016Z,938.95
2016-02-27T05:49:18.878Z,938.99
2016-02-27T05:50:18.788Z,939.01
2016-02-27T05:51:18.727Z,939
2016-02-27T05:52:18.684Z,938.99
2016-02-27T05:53:18.623Z,939
2016-02-27T05:54:18.548Z,939.07
2016-02-27T05:55:18.488Z,939.09
2016-02-27T05:56:18.475Z,939.11
2016-02-27T05:57:18.400Z,939.1
2016-02-27T05:58:18.293Z,939.13
2016-02-27T05:59:18.249Z,939.07
2016-02-27T06:00:18.173Z,939.09
2016-02-27T06:01:18.129Z,939.09
2016-02-27T06:02:18.132Z,939.08
2016-02-27T06:03:18.041Z,939.05
2016-02-27T06:04:17.934Z,939.07
2016-02-27T06:05:17.875Z,939.07
2016-02-27T06:06:17.799Z,939.07
2016-02-27T06:07:17.770Z,939.09
2016-02-27T06:08:17.694Z,939.07
2016-02-27T06:09:17.636Z,939.1
2016-02-27T06:10:17.560Z,939.09
2016-02-27T06:11:17.516Z,939.08
2016-02-27T06:12:17.440Z,939.1
2016-02-27T06:13:17.396Z,939.09
2016-02-27T06:14:17.321Z,939.07
2016-02-27T06:15:17.260Z,939.03
2016-02-27T06:16:17.201Z,939.04
2016-02-27T06:17:17.126Z,939.02
2016-02-27T06:18:17.066Z,939.06
2016-02-27T06:19:17.006Z,939.06
2016-02-27T06:20:16.962Z,939.09
2016-02-27T06:21:16.918Z,939.15
2016-02-27T06:22:16.842Z,939.16
2016-02-27T06:23:16.751Z,939.15
2016-02-27T06:24:16.769Z,939.14
2016-02-27T06:25:16.663Z,939.15
2016-02-27T06:26:16.665Z,939.13
2016-02-27T06:27:16.606Z,939.14
2016-02-27T06:28:16.452Z,939.16
2016-02-27T06:29:16.392Z,939.13
2016-02-27T06:30:16.364Z,939.14
2016-02-27T06:31:16.288Z,939.16
2016-02-27T06:32:16.228Z,939.14
2016-02-27T06:33:16.153Z,939.17
2016-02-27T06:34:16.078Z,939.18
2016-02-27T06:35:16.033Z,939.19
2016-02-27T06:36:15.973Z,939.17
2016-02-27T06:37:15.914Z,939.23
2016-02-27T06:38:15.853Z,939.2
2016-02-27T06:39:15.841Z,939.18
2016-02-27T06:40:15.733Z,939.21
2016-02-27T06:41:15.675Z,939.17
2016-02-27T06:42:15.599Z,939.18
2016-02-27T06:43:15.554Z,939.21
2016-02-27T06:44:15.479Z,939.17
2016-02-27T06:45:15.435Z,939.16
2016-02-27T06:46:15.360Z,939.18
2016-02-27T06:47:15.315Z,939.14
2016-02-27T06:48:15.240Z,939.16
2016-02-27T06:49:15.180Z,939.2
2016-02-27T06:50:15.121Z,939.17
2016-02-27T06:51:15.046Z,939.18
2016-02-27T06:52:14.985Z,939.16
2016-02-27T06:53:14.941Z,939.1
2016-02-27T06:54:14.866Z,939.14
2016-02-27T06:55:14.790Z,939.13
2016-02-27T06:56:14.745Z,939.16
2016-02-27T06:57:14.967Z,939.14
2016-02-27T06:58:14.611Z,939.14
2016-02-27T06:59:14.566Z,939.16
2016-02-27T07:00:14.492Z,939.15
2016-02-27T07:01:14.525Z,939.16
2016-02-27T07:02:14.372Z,939.17
2016-02-27T07:03:14.312Z,939.23
2016-02-27T07:04:14.252Z,939.23
2016-02-27T07:05:14.192Z,939.23
2016-02-27T07:06:14.147Z,939.27
2016-02-27T07:07:14.260Z,939.25
2016-02-27T07:08:14.076Z,939.26
2016-02-27T07:09:14.016Z,939.33
2016-02-27T07:10:13.909Z,939.33
2016-02-27T07:11:13.833Z,939.31
2016-02-27T07:12:13.820Z,939.31
2016-02-27T07:13:13.854Z,939.32
2016-02-27T07:14:13.747Z,939.34
2016-02-27T07:15:13.688Z,939.34
2016-02-27T07:16:13.519Z,939.37
2016-02-27T07:17:13.475Z,939.38
2016-02-27T07:18:13.399Z,939.37
2016-02-27T07:19:13.433Z,939.38
2016-02-27T07:20:13.388Z,939.36
2016-02-27T07:21:13.298Z,939.35
2016-02-27T07:22:13.284Z,939.37
2016-02-27T07:23:13.224Z,939.32
2016-02-27T07:24:13.072Z,939.41
2016-02-27T07:25:13.090Z,939.39
2016-02-27T07:26:12.921Z,939.4
2016-02-27T07:27:12.970Z,939.44
2016-02-27T07:28:12.863Z,939.42
2016-02-27T07:29:12.944Z,939.44
2016-02-27T07:30:13.181Z,939.41
2016-02-27T07:31:12.700Z,939.4
2016-02-27T07:32:12.703Z,939.39
2016-02-27T07:33:12.487Z,939.42
2016-02-27T07:34:12.426Z,939.37
2016-02-27T07:35:12.382Z,939.41
2016-02-27T07:36:12.291Z,939.44
2016-02-27T07:37:12.231Z,939.45
2016-02-27T07:38:12.186Z,939.46
2016-02-27T07:39:12.221Z,939.48
2016-02-27T07:40:12.068Z,939.45
2016-02-27T07:41:12.008Z,939.42
2016-02-27T07:42:11.933Z,939.44
2016-02-27T07:43:11.872Z,939.42
2016-02-27T07:44:11.828Z,939.46
2016-02-27T07:45:11.799Z,939.49
2016-02-27T07:46:11.693Z,939.53
2016-02-27T07:47:11.649Z,939.53
2016-02-27T07:48:11.605Z,939.6
2016-02-27T07:49:11.608Z,939.66
2016-02-27T07:50:11.563Z,939.61
2016-02-27T07:51:11.410Z,939.61
2016-02-27T07:52:11.366Z,939.61
2016-02-27T07:53:11.305Z,939.68
2016-02-27T07:54:11.199Z,939.68
2016-02-27T07:55:11.154Z,939.7
2016-02-27T07:56:11.095Z,939.66
2016-02-27T07:57:11.035Z,939.69
2016-02-27T07:58:10.975Z,939.65
2016-02-27T07:59:10.931Z,939.66
2016-02-27T08:00:10.856Z,939.69
2016-02-27T08:01:10.859Z,939.66
2016-02-27T08:02:10.720Z,939.69
2016-02-27T08:03:10.661Z,939.69
2016-02-27T08:04:10.601Z,939.69
2016-02-27T08:05:10.667Z,939.71
2016-02-27T08:06:10.497Z,939.73
2016-02-27T08:07:10.422Z,939.75
2016-02-27T08:08:10.440Z,939.74
2016-02-27T08:09:10.317Z,939.79
2016-02-27T08:10:10.258Z,939.79
2016-02-27T08:11:10.197Z,939.78
2016-02-27T08:12:10.122Z,939.81
2016-02-27T08:13:10.063Z,939.86
2016-02-27T08:14:10.018Z,939.79
2016-02-27T08:15:09.958Z,939.78
2016-02-27T08:16:09.883Z,939.75
2016-02-27T08:17:09.839Z,939.76
2016-02-27T08:18:09.841Z,939.76
2016-02-27T08:19:09.704Z,939.78
2016-02-27T08:20:09.660Z,939.78
2016-02-27T08:21:09.585Z,939.82
2016-02-27T08:22:09.541Z,939.82
2016-02-27T08:23:09.465Z,939.84
2016-02-27T08:24:09.404Z,939.81
2016-02-27T08:25:09.346Z,939.82
2016-02-27T08:26:09.269Z,939.82
2016-02-27T08:27:09.226Z,939.82
2016-02-27T08:28:09.212Z,939.73
2016-02-27T08:29:09.137Z,939.73
2016-02-27T08:30:09.061Z,939.74
2016-02-27T08:31:09.018Z,939.71
2016-02-27T08:32:08.942Z,939.71
2016-02-27T08:33:08.882Z,939.73
2016-02-27T08:34:08.822Z,939.68
2016-02-27T08:35:08.762Z,939.68
2016-02-27T08:36:08.875Z,939.7
2016-02-27T08:37:08.831Z,939.67
2016-02-27T08:38:08.693Z,939.76
2016-02-27T08:39:08.523Z,939.74
2016-02-27T08:40:08.448Z,939.7
2016-02-27T08:41:08.404Z,939.73
2016-02-27T08:42:08.328Z,939.73
2016-02-27T08:43:08.284Z,939.7
2016-02-27T08:44:08.225Z,939.76
2016-02-27T08:45:08.164Z,939.74
2016-02-27T08:46:08.136Z,939.74
2016-02-27T08:47:08.044Z,939.76
2016-02-27T08:48:07.985Z,939.71
2016-02-27T08:49:08.112Z,939.72
2016-02-27T08:50:07.913Z,939.73
2016-02-27T08:51:07.805Z,939.76
2016-02-27T08:52:07.793Z,939.8
2016-02-27T08:53:07.671Z,939.82
2016-02-27T08:54:07.626Z,939.81
2016-02-27T08:55:07.566Z,939.79
2016-02-27T08:56:07.835Z,939.75
2016-02-27T08:57:07.446Z,939.75
2016-02-27T08:58:07.418Z,939.75
2016-02-27T08:59:07.326Z,939.73
2016-02-27T09:00:07.251Z,939.77
2016-02-27T09:01:07.207Z,939.72
2016-02-27T09:02:07.148Z,939.76
2016-02-27T09:03:07.088Z,939.75
2016-02-27T09:04:07.012Z,939.76
2016-02-27T09:05:06.968Z,939.76
2016-02-27T09:06:06.939Z,939.79
2016-02-27T09:07:06.833Z,939.77
2016-02-27T09:08:06.820Z,939.71
2016-02-27T09:09:06.728Z,939.64
2016-02-27T09:10:06.669Z,939.62
2016-02-27T09:11:06.625Z,939.63
2016-02-27T09:12:06.550Z,939.61
2016-02-27T09:13:06.506Z,939.61
2016-02-27T09:14:06.492Z,939.61
2016-02-27T09:15:06.386Z,939.62
2016-02-27T09:16:06.326Z,939.64
2016-02-27T09:17:06.266Z,939.64
2016-02-27T09:18:06.206Z,939.61
2016-02-27T09:19:06.146Z,939.63
2016-02-27T09:20:06.086Z,939.62
2016-02-27T09:21:06.027Z,939.61
2016-02-27T09:22:05.966Z,939.63
2016-02-27T09:23:05.891Z,939.6
2016-02-27T09:24:05.847Z,939.6
2016-02-27T09:25:05.881Z,939.59
2016-02-27T09:26:05.728Z,939.6
2016-02-27T09:27:05.683Z,939.64
2016-02-27T09:28:05.607Z,939.66
2016-02-27T09:29:05.564Z,939.64
2016-02-27T09:30:05.488Z,939.66
2016-02-27T09:31:05.444Z,939.66
2016-02-27T09:32:05.384Z,939.66
2016-02-27T09:33:05.356Z,939.62
2016-02-27T09:34:05.264Z,939.65
2016-02-27T09:35:05.204Z,939.68
2016-02-27T09:36:05.145Z,939.64
2016-02-27T09:37:05.085Z,939.66
2016-02-27T09:38:05.042Z,939.7
2016-02-27T09:39:04.950Z,939.68
2016-02-27T09:40:04.906Z,939.71
2016-02-27T09:41:04.862Z,939.72
2016-02-27T09:42:04.802Z,939.72
2016-02-27T09:43:04.726Z,939.72
2016-02-27T09:44:04.792Z,939.68
2016-02-27T09:45:04.654Z,939.67
2016-02-27T09:46:04.563Z,939.67
2016-02-27T09:47:04.487Z,939.67
2016-02-27T09:48:04.443Z,939.7
2016-02-27T09:49:04.383Z,939.69
2016-02-27T09:50:04.324Z,939.66
2016-02-27T09:51:04.341Z,939.64
2016-02-27T09:52:04.297Z,939.71
2016-02-27T09:53:04.206Z,939.7
2016-02-27T09:54:04.100Z,939.7
2016-02-27T09:55:04.056Z,939.72
2016-02-27T09:56:04.011Z,939.71
2016-02-27T09:57:03.936Z,939.72
2016-02-27T09:58:03.861Z,939.66
2016-02-27T09:59:03.848Z,939.68
2016-02-27T10:00:03.772Z,939.68
2016-02-27T10:01:03.743Z,939.69
2016-02-27T10:02:03.637Z,939.65
2016-02-27T10:03:03.593Z,939.64
2016-02-27T10:04:03.626Z,939.67
2016-02-27T10:05:03.474Z,939.67
2016-02-27T10:06:03.413Z,939.67
2016-02-27T10:07:03.369Z,939.66
2016-02-27T10:08:03.310Z,939.67
2016-02-27T10:09:03.296Z,939.66
2016-02-27T10:10:03.206Z,939.67
2016-02-27T10:11:03.130Z,939.65
2016-02-27T10:12:03.101Z,939.7
2016-02-27T10:13:03.026Z,939.65
2016-02-27T10:14:02.981Z,939.66
2016-02-27T10:15:02.937Z,939.59
2016-02-27T10:16:02.862Z,939.59
2016-02-27T10:17:02.818Z,939.58
2016-02-27T10:18:02.774Z,939.63
2016-02-27T10:19:02.698Z,939.58
2016-02-27T10:20:02.639Z,939.61
2016-02-27T10:21:02.576Z,939.59
2016-02-27T10:22:02.532Z,939.59
2016-02-27T10:23:02.472Z,939.58
2016-02-27T10:24:02.412Z,939.58
2016-02-27T10:25:02.352Z,939.55
2016-02-27T10:26:02.293Z,939.53
2016-02-27T10:27:02.233Z,939.57
2016-02-27T10:28:02.173Z,939.59
2016-02-27T10:29:02.160Z,939.6
2016-02-27T10:30:02.132Z,939.57
2016-02-27T10:31:02.009Z,939.55
2016-02-27T10:32:01.996Z,939.59
2016-02-27T10:33:01.905Z,939.58
2016-02-27T10:34:01.860Z,939.58
2016-02-27T10:35:01.785Z,939.54
2016-02-27T10:36:01.741Z,939.57
2016-02-27T10:37:01.697Z,939.59
2016-02-27T10:38:01.637Z,939.57
2016-02-27T10:39:01.593Z,939.56
2016-02-27T10:40:01.548Z,939.62
2016-02-27T10:41:01.458Z,939.62
2016-02-27T10:42:01.429Z,939.61
2016-02-27T10:43:01.448Z,939.62
2016-02-27T10:44:01.294Z,939.59
2016-02-27T10:45:01.234Z,939.62
2016-02-27T10:46:01.222Z,939.63
2016-02-27T10:47:01.145Z,939.66
2016-02-27T10:48:01.102Z,939.62
2016-02-27T10:49:01.042Z,939.61
2016-02-27T10:50:00.983Z,939.58
2016-02-27T10:51:00.922Z,939.6
2016-02-27T10:52:00.878Z,939.58
2016-02-27T10:53:00.786Z,939.6
2016-02-27T10:54:00.774Z,939.54
2016-02-27T10:55:00.699Z,939.56
2016-02-27T10:56:00.670Z,939.55
2016-02-27T10:57:00.611Z,939.55
2016-02-27T10:58:00.613Z,939.55
2016-02-27T10:59:00.522Z,939.57
2016-02-27T11:00:00.447Z,939.55
2016-02-27T11:01:00.387Z,939.54
2016-02-27T11:02:00.343Z,939.52
2016-02-27T11:03:00.313Z,939.46
2016-02-27T11:04:00.223Z,939.49
2016-02-27T11:05:00.179Z,939.52
2016-02-27T11:06:00.118Z,939.5
2016-02-27T11:07:00.059Z,939.52
2016-02-27T11:08:00.140Z,939.54
2016-02-27T11:08:59.955Z,939.57
2016-02-27T11:09:59.879Z,939.55
2016-02-27T11:10:59.835Z,939.59
2016-02-27T11:11:59.791Z,939.53
2016-02-27T11:12:59.731Z,939.53
2016-02-27T11:13:59.672Z,939.53
2016-02-27T11:14:59.628Z,939.5
2016-02-27T11:15:59.583Z,939.55
2016-02-27T11:16:59.539Z,939.54
2016-02-27T11:17:59.464Z,939.55
2016-02-27T11:18:59.419Z,939.54
2016-02-27T11:19:59.344Z,939.56
2016-02-27T11:20:59.284Z,939.57
2016-02-27T11:21:59.350Z,939.55
2016-02-27T11:22:59.493Z,939.49
2016-02-27T11:23:59.152Z,939.5
2016-02-27T11:24:59.108Z,939.51
2016-02-27T11:25:59.033Z,939.48
2016-02-27T11:26:59.019Z,939.51
2016-02-27T11:27:58.913Z,939.51
2016-02-27T11:28:58.868Z,939.5
2016-02-27T11:29:58.825Z,939.53
2016-02-27T11:30:58.764Z,939.54
2016-02-27T11:31:58.705Z,939.53
2016-02-27T11:32:58.645Z,939.5
2016-02-27T11:33:58.646Z,939.48
2016-02-27T11:34:58.618Z,939.51
2016-02-27T11:35:58.496Z,939.48
2016-02-27T11:36:58.437Z,939.43
2016-02-27T11:37:58.408Z,939.4
2016-02-27T11:38:58.349Z,939.45
2016-02-27T11:39:58.288Z,939.45
2016-02-27T11:40:58.307Z,939.44
2016-02-27T11:41:58.168Z,939.47
2016-02-27T11:42:58.125Z,939.47
2016-02-27T11:43:58.049Z,939.43
2016-02-27T11:44:58.020Z,939.47
2016-02-27T11:45:57.946Z,939.44
2016-02-27T11:46:57.901Z,939.43
2016-02-27T11:47:57.857Z,939.38
2016-02-27T11:48:57.797Z,939.4
2016-02-27T11:49:57.753Z,939.37
2016-02-27T11:50:57.755Z,939.35
2016-02-27T11:51:57.664Z,939.38
2016-02-27T11:52:57.589Z,939.43
2016-02-27T11:53:57.514Z,939.38
2016-02-27T11:54:57.783Z,939.43
2016-02-27T11:55:57.410Z,939.42
2016-02-27T11:56:57.366Z,939.4
2016-02-27T11:57:57.321Z,939.43
2016-02-27T11:58:57.261Z,939.4
2016-02-27T11:59:57.233Z,939.41
2016-02-27T12:00:57.173Z,939.45
2016-02-27T12:01:57.098Z,939.43
2016-02-27T12:02:57.038Z,939.42
2016-02-27T12:03:57.010Z,939.4
2016-02-27T12:04:56.949Z,939.39
2016-02-27T12:05:56.890Z,939.41
2016-02-27T12:06:56.815Z,939.37
2016-02-27T12:07:56.770Z,939.33
2016-02-27T12:08:56.741Z,939.33
2016-02-27T12:09:56.666Z,939.31
2016-02-27T12:10:56.716Z,939.33
2016-02-27T12:11:56.656Z,939.34
2016-02-27T12:12:56.502Z,939.31
2016-02-27T12:13:56.458Z,939.36
2016-02-27T12:14:56.414Z,939.33
2016-02-27T12:15:56.354Z,939.35
2016-02-27T12:16:56.341Z,939.39
2016-02-27T12:17:56.266Z,939.36
2016-02-27T12:18:56.190Z,939.37
2016-02-27T12:19:56.193Z,939.34
2016-02-27T12:20:56.102Z,939.35
2016-02-27T12:21:56.058Z,939.37
2016-02-27T12:22:55.998Z,939.38
2016-02-27T12:23:56.048Z,939.39
2016-02-27T12:24:55.878Z,939.4
2016-02-27T12:25:55.803Z,939.42
2016-02-27T12:26:55.759Z,939.42
2016-02-27T12:27:55.699Z,939.46
2016-02-27T12:28:55.655Z,939.43
2016-02-27T12:29:55.580Z,939.42
2016-02-27T12:30:55.550Z,939.42